Airfield :
LOGIN :

Register | Disclaimer

   EN    FR    IT 

 










Legend :    VFR   Marginal VFR   IFR   Intensive IFR   Very Intensive IFR
Visi :
Ceiling :
>= 8 km
>= 3000ft
5 to 8 km
1000 to 3000 ft
1500m to 5 km
500 to 1000 ft
800 to 1500m
200 to 500 ft
< 800m
< 200 ft
Symbols :   Thunderstorms  Fog  Heavy snow  Heavy precipitations  Wind > 20 kt
SIGMETs :     Misc.  Thunderstorms  Icing  Turbulence  Mountain Waves  Volcanic Ashes







- Airport Elevation : 364 ft
- IATA code : FRA


EDDF - Frankfurt Int.

CURRENT METAR :
  • 240820Z 32010KT 290V360 9999 FEW023 12/06 Q1033 NOSIG

EXPIRED METARs :
  • 240750Z 30008G19KT 220V330 9999 SCT022 11/06 Q1032 NOSIG
  • 240720Z 27007KT 220V320 9999 FEW017 11/06 Q1032 NOSIG
  • 240650Z 27006KT 240V300 9999 FEW012 10/06 Q1031 NOSIG
  • 240620Z 20004KT 170V280 9999 FEW008 08/06 Q1031 NOSIG
  • 240550Z 23004KT 9999 FEW005 06/05 Q1030 NOSIG
  • 240520Z 22004KT 9999 FEW005 06/05 Q1030 NOSIG

TAF TAF EDDF
Valid from the 24 at 06:00 until the 25 at 12:00 UTC


240500Z 2406/2512 27008KT 9999 FEW030
BECMG 2409/2411 30013KT
PROB40
TEMPO 2412/2415 30015G25KT
BECMG 2417/2420 30004KT
BECMG 2507/2509 04007KT
No reported NOTAMs for that airfield.



MET'MAP, your aeronautical weather chart ! - Copyright ORBIFLY December 2007 - Disclaimer

ORBIFLY MET'MAP TEAM :

Programming & Development : Alexandra Zaïnal
Concept & Development : Baudouin d'Aumeries
Co-Development & Prog : Marc-Olivier Méhu
Technical & hardware support : Manuel Goepfert

Contact : metmap@orbifly.com




SOURCES & CREDITS :

   NOAA